Time;durP1;ratioP1;P1;durP2;ratioP2;P2;SDS_P1;SDS_P2;PMS_P1;PMS_P2;Temp;Humidity;BMP_temperature;BMP_pressure;BME280_temperature;BME280_humidity;BME280_pressure;Samples;Min_cycle;Max_cycle;Signal;HPM_P1;HPM_P2
2023/01/10 00:00:47;;;;;;;;;;;;;;;28.40;75.46;101106.25;5066894;27;66871;-37
2023/01/10 00:03:18;;;;;;;;;;;;;;;28.43;75.90;101104.03;5080682;27;70609;-37
2023/01/10 00:05:49;;;;;;;;;;;;;;;28.47;76.92;101108.00;5084424;27;65436;-37
2023/01/10 00:08:19;;;;;;;;;;;;;;;28.51;76.93;101120.06;5083051;27;70276;-38
2023/01/10 00:10:50;;;;;;;;;;;;;;;28.54;77.10;101123.41;5081740;27;66766;-37
2023/01/10 00:13:24;;;;;;;;;;;;;;;28.58;77.62;101122.78;5078143;27;69661;-34
2023/01/10 00:15:56;;;;;;;;;;;;;;;28.63;77.67;101122.19;5081789;27;65854;-37
2023/01/10 00:18:27;;;;;;;;;;;;;;;28.66;78.30;101132.59;5082377;27;71192;-37
2023/01/10 00:20:58;;;;;;;;;;;;;;;28.66;78.70;101133.41;5083580;27;66171;-37
2023/01/10 00:23:29;;;;;;;;;;;;;;;28.69;78.14;101132.19;5079058;27;70041;-37
2023/01/10 00:26:00;;;;;;;;;;;;;;;28.68;78.18;101136.75;5089103;27;65176;-41
2023/01/10 00:28:33;;;;;;;;;;;;;;;28.72;78.27;101142.59;5080772;27;70374;-40
2023/01/10 00:31:05;;;;;;;;;;;;;;;28.70;78.23;101144.66;5083976;27;65763;-39
2023/01/10 00:33:36;;;;;;;;;;;;;;;28.72;78.52;101147.97;5079814;27;71046;-40
2023/01/10 00:36:09;;;;;;;;;;;;;;;28.71;79.11;101146.31;5085600;27;66040;-39
2023/01/10 00:38:39;;;;;;;;;;;;;;;28.71;79.44;101149.03;5079070;27;69989;-40
2023/01/10 00:43:55;;;;;;;;;;;;;;;28.74;79.23;101151.31;5084413;27;65828;-38
2023/01/10 00:44:00;;;;;;;;;;;;;;;28.73;79.36;101150.50;5083179;27;70489;-39
2023/01/10 00:46:32;;;;;;;;;;;;;;;28.58;79.34;101157.88;5082853;27;66049;-39
2023/01/10 00:49:07;;;;;;;;;;;;;;;28.51;79.45;101159.72;5069699;27;69758;-39
2023/01/10 00:51:38;;;;;;;;;;;;;;;28.52;79.08;101164.06;5081149;27;66894;-39
2023/01/10 00:54:12;;;;;;;;;;;;;;;28.52;78.90;101164.06;5081908;27;63270;-39
2023/01/10 00:56:43;;;;;;;;;;;;;;;28.52;79.00;101167.59;5084794;27;65281;-39
2023/01/10 00:59:14;;;;;;;;;;;;;;;28.52;79.61;101164.06;5078858;27;70461;-38
2023/01/10 01:01:45;;;;;;;;;;;;;;;28.56;78.89;101175.31;5083770;27;66416;-40
2023/01/10 01:04:16;;;;;;;;;;;;;;;28.56;79.13;101176.16;5080402;27;70317;-39
2023/01/10 01:06:47;;;;;;;;;;;;;;;28.58;78.41;101167.84;5085866;27;65610;-39
2023/01/10 01:09:18;;;;;;;;;;;;;;;28.62;78.54;101174.53;5081246;27;70127;-39
2023/01/10 01:11:49;;;;;;;;;;;;;;;28.61;78.54;101172.84;5083301;27;66239;-39
2023/01/10 01:14:19;;;;;;;;;;;;;;;28.60;78.12;101176.56;5069340;27;70234;-39
2023/01/10 01:16:50;;;;;;;;;;;;;;;28.61;78.42;101176.41;5080886;27;65531;-39
2023/01/10 01:19:21;;;;;;;;;;;;;;;28.61;78.49;101183.63;5068677;28;69832;-40
2023/01/10 01:21:52;;;;;;;;;;;;;;;28.63;77.83;101184.28;5081305;27;67305;-39
2023/01/10 01:24:23;;;;;;;;;;;;;;;28.63;77.76;101184.28;5057681;28;70807;-38
2023/01/10 01:26:54;;;;;;;;;;;;;;;28.63;78.10;101192.38;5078297;27;65564;-38
2023/01/10 01:29:25;;;;;;;;;;;;;;;28.64;77.57;101183.22;5079282;27;69644;-40
2023/01/10 01:32:10;;;;;;;;;;;;;;;28.64;77.81;101194.03;5080462;27;65836;-38
2023/01/10 01:34:41;;;;;;;;;;;;;;;28.65;77.61;101187.63;5075953;27;69212;-40
2023/01/10 01:37:12;;;;;;;;;;;;;;;28.67;77.55;101188.25;5082514;27;66607;-39
2023/01/10 01:39:43;;;;;;;;;;;;;;;28.66;77.86;101184.72;5084017;27;70533;-39
2023/01/10 01:42:33;;;;;;;;;;;;;;;28.68;77.39;101189.91;5080771;27;66353;-39
2023/01/10 01:45:07;;;;;;;;;;;;;;;28.68;77.68;101184.53;5086391;27;69123;-40
2023/01/10 01:47:40;;;;;;;;;;;;;;;28.68;77.92;101184.53;5080270;27;66025;-38
2023/01/10 01:50:22;;;;;;;;;;;;;;;28.69;77.33;101192.41;5083737;27;69955;-42
2023/01/10 01:52:54;;;;;;;;;;;;;;;28.72;77.55;101191.19;5079914;27;66280;-39
2023/01/10 01:55:26;;;;;;;;;;;;;;;28.71;77.71;101187.66;5081531;27;69815;-40
2023/01/10 01:57:58;;;;;;;;;;;;;;;28.72;77.67;101188.47;5084451;27;66085;-38
2023/01/10 02:00:29;;;;;;;;;;;;;;;28.74;77.35;101194.53;5077785;27;70439;-43
2023/01/10 02:03:01;;;;;;;;;;;;;;;28.73;77.40;101192.88;5082990;27;66589;-39
2023/01/10 02:05:33;;;;;;;;;;;;;;;28.74;77.29;101200.75;5081099;27;69637;-38
2023/01/10 02:08:05;;;;;;;;;;;;;;;28.75;77.14;101201.56;5085438;27;65501;-39
2023/01/10 02:10:54;;;;;;;;;;;;;;;28.78;76.93;101203.91;5089160;27;69850;-39
2023/01/10 02:13:27;;;;;;;;;;;;;;;28.77;76.90;101209.50;5082405;27;65394;-39
2023/01/10 02:15:57;;;;;;;;;;;;;;;28.78;76.98;101205.75;5093100;27;69610;-39
2023/01/10 02:18:29;;;;;;;;;;;;;;;28.80;77.21;101211.78;5085946;27;65619;-39
2023/01/10 02:21:08;;;;;;;;;;;;;;;28.82;77.20;101209.72;5084453;27;70141;-38
2023/01/10 02:23:39;;;;;;;;;;;;;;;28.82;77.44;101221.38;5083810;27;65212;-39
2023/01/10 02:26:23;;;;;;;;;;;;;;;28.85;76.84;101226.38;5090979;27;69719;-38
2023/01/10 02:28:57;;;;;;;;;;;;;;;28.85;77.11;101217.44;5085804;27;67459;-39
2023/01/10 02:31:36;;;;;;;;;;;;;;;28.85;77.30;101223.66;5083562;27;69128;-38
2023/01/10 02:34:16;;;;;;;;;;;;;;;28.86;76.79;101225.34;5090638;27;65654;-39
2023/01/10 02:37:04;;;;;;;;;;;;;;;28.88;76.85;101222.44;5083687;27;70726;-40
2023/01/10 02:39:53;;;;;;;;;;;;;;;28.84;76.76;101216.59;5087705;27;67266;-40
2023/01/10 02:42:50;;;;;;;;;;;;;;;28.90;76.72;101223.06;5082728;27;69872;-39
2023/01/10 02:45:38;;;;;;;;;;;;;;;28.91;76.76;101220.16;5064926;27;67170;-38
2023/01/10 02:48:09;;;;;;;;;;;;;;;28.92;77.01;101213.75;5085444;27;69884;-42
2023/01/10 02:50:43;;;;;;;;;;;;;;;28.94;76.70;101217.06;5077772;27;66276;-39
2023/01/10 02:53:18;;;;;;;;;;;;;;;28.95;76.76;101207.94;5084486;27;68840;-39
2023/01/10 02:56:00;;;;;;;;;;;;;;;28.98;76.35;101205.88;5067704;27;66245;-41
2023/01/10 02:58:50;;;;;;;;;;;;;;;29.00;76.27;101198.41;5074337;27;69205;-38
2023/01/10 03:01:21;;;;;;;;;;;;;;;29.01;76.51;101200.91;5087566;27;66013;-39
2023/01/10 03:04:12;;;;;;;;;;;;;;;29.02;76.62;101201.75;5083674;27;70221;-38
2023/01/10 03:06:44;;;;;;;;;;;;;;;29.05;75.87;101206.78;5082568;27;66164;-38
2023/01/10 03:09:20;;;;;;;;;;;;;;;29.06;76.46;101197.63;5082744;27;69765;-38
2023/01/10 03:11:57;;;;;;;;;;;;;;;29.08;76.52;101204.50;5075862;27;67037;-39
2023/01/10 03:14:29;;;;;;;;;;;;;;;29.09;75.75;101195.38;5083060;27;69954;-40
2023/01/10 03:17:03;;;;;;;;;;;;;;;29.10;76.18;101194.31;5084595;27;66615;-40
2023/01/10 03:19:37;;;;;;;;;;;;;;;29.12;75.75;101191.44;5082418;27;71041;-42
2023/01/10 03:22:09;;;;;;;;;;;;;;;29.13;75.74;101182.28;5086944;27;66630;-39
2023/01/10 03:24:42;;;;;;;;;;;;;;;29.15;75.76;101180.22;5085175;27;69742;-38
2023/01/10 03:27:26;;;;;;;;;;;;;;;29.16;75.94;101181.88;5086205;27;66147;-38
2023/01/10 03:30:05;;;;;;;;;;;;;;;29.19;75.98;101181.47;5083661;27;69290;-39
2023/01/10 03:32:36;;;;;;;;;;;;;;;29.20;75.44;101172.34;5090454;27;66653;-40
2023/01/10 03:35:07;;;;;;;;;;;;;;;29.22;75.52;101175.66;5085453;27;70481;-39
2023/01/10 03:37:38;;;;;;;;;;;;;;;29.25;75.41;101172.56;5086931;27;66241;-41
2023/01/10 03:40:12;;;;;;;;;;;;;;;29.27;75.53;101167.78;5090359;27;68939;-40
2023/01/10 03:46:03;;;;;;;;;;;;;;;29.32;75.06;101157.22;5093750;27;70761;-41
2023/01/10 03:48:37;;;;;;;;;;;;;;;29.31;75.38;101160.09;5089666;27;66358;-40
2023/01/10 03:51:11;;;;;;;;;;;;;;;29.36;75.20;101161.19;5073194;27;70036;-38
2023/01/10 03:53:41;;;;;;;;;;;;;;;29.38;74.97;101164.50;5088465;27;66143;-39
2023/01/10 03:56:13;;;;;;;;;;;;;;;29.42;74.91;101153.28;5069953;27;70348;-39
2023/01/10 03:58:44;;;;;;;;;;;;;;;29.45;74.95;101155.56;5089905;27;66815;-42
2023/01/10 04:01:16;;;;;;;;;;;;;;;29.46;74.86;101147.28;5078426;27;69726;-39
2023/01/10 04:03:46;;;;;;;;;;;;;;;29.44;74.99;101129.59;5082998;27;66552;-39
2023/01/10 04:06:19;;;;;;;;;;;;;;;29.51;75.02;101127.75;5088943;27;70362;-39
2023/01/10 04:08:49;;;;;;;;;;;;;;;29.53;75.47;101128.34;5089675;27;65768;-39
2023/01/10 04:11:20;;;;;;;;;;;;;;;29.55;75.27;101121.72;5086480;27;70816;-40
2023/01/10 04:13:51;;;;;;;;;;;;;;;29.58;74.88;101117.75;5088358;27;66115;-39
2023/01/10 04:16:22;;;;;;;;;;;;;;;29.60;74.87;101116.53;5088151;27;70078;-41
2023/01/10 04:18:53;;;;;;;;;;;;;;;29.62;74.31;101100.94;5071345;27;65596;-40
2023/01/10 04:21:24;;;;;;;;;;;;;;;29.65;74.30;101105.13;5070132;27;69987;-39
2023/01/10 04:23:54;;;;;;;;;;;;;;;29.67;74.10;101097.66;5086972;27;66669;-40
2023/01/10 04:26:26;;;;;;;;;;;;;;;29.69;74.13;101103.66;5090800;27;69694;-39
2023/01/10 04:28:56;;;;;;;;;;;;;;;29.72;74.07;101094.31;5087310;27;66936;-39
2023/01/10 04:31:28;;;;;;;;;;;;;;;29.72;73.49;101084.31;5089565;27;70446;-39
2023/01/10 04:33:58;;;;;;;;;;;;;;;29.74;73.57;101087.66;5093631;27;65785;-39
2023/01/10 04:36:29;;;;;;;;;;;;;;;29.75;72.88;101086.59;5083412;27;70801;-42
2023/01/10 04:39:00;;;;;;;;;;;;;;;29.77;72.89;101081.84;5092989;27;66998;-39
2023/01/10 04:41:30;;;;;;;;;;;;;;;29.77;73.36;101081.84;5070414;27;70082;-39
2023/01/10 04:44:01;;;;;;;;;;;;;;;29.79;73.45;101073.53;5084045;27;66794;-41
2023/01/10 04:46:32;;;;;;;;;;;;;;;29.80;72.78;101075.19;5093302;27;70011;-40
2023/01/10 04:49:03;;;;;;;;;;;;;;;29.79;72.69;101074.34;5086207;27;65577;-39
2023/01/10 04:51:33;;;;;;;;;;;;;;;29.79;73.11;101063.53;5089141;27;70569;-39
2023/01/10 04:54:04;;;;;;;;;;;;;;;29.79;72.62;101060.84;5085934;27;66959;-40
2023/01/10 04:56:35;;;;;;;;;;;;;;;29.81;72.86;101061.47;5086573;27;70582;-39
2023/01/10 04:59:08;;;;;;;;;;;;;;;29.81;72.58;101060.59;5087968;27;66456;-40
2023/01/10 05:01:39;;;;;;;;;;;;;;;29.77;72.36;101043.97;5092747;27;70746;-39
2023/01/10 05:04:10;;;;;;;;;;;;;;;29.81;72.36;101044.38;5086745;27;65199;-39
2023/01/10 05:06:40;;;;;;;;;;;;;;;29.79;72.99;101041.91;5088826;27;69400;-40
2023/01/10 05:09:11;;;;;;;;;;;;;;;29.80;72.35;101040.84;5083177;27;66742;-40
2023/01/10 05:11:42;;;;;;;;;;;;;;;29.75;72.65;101040.66;5080500;27;70703;-40
2023/01/10 05:14:14;;;;;;;;;;;;;;;29.77;73.20;101033.16;5082246;27;66794;-40
2023/01/10 05:16:44;;;;;;;;;;;;;;;29.78;72.81;101026.72;5082886;27;69738;-39
2023/01/10 05:19:15;;;;;;;;;;;;;;;29.78;72.24;101024.03;5060510;27;65658;-42
2023/01/10 05:21:46;;;;;;;;;;;;;;;29.79;72.54;101020.28;5078743;27;70340;-41
2023/01/10 05:24:17;;;;;;;;;;;;;;;29.80;72.06;101024.63;5080933;27;66056;-45
2023/01/10 05:26:48;;;;;;;;;;;;;;;29.82;72.64;101003.63;5081139;27;69815;-41
2023/01/10 05:29:18;;;;;;;;;;;;;;;29.83;72.98;100993.63;5082467;27;66566;-41
2023/01/10 05:31:52;;;;;;;;;;;;;;;29.84;72.56;100990.75;5059740;27;69486;-40
2023/01/10 05:34:23;;;;;;;;;;;;;;;29.86;72.59;100989.69;5080692;27;66695;-39
2023/01/10 05:36:54;;;;;;;;;;;;;;;29.87;73.03;100973.25;5081754;27;70604;-39
2023/01/10 05:39:25;;;;;;;;;;;;;;;29.86;72.63;100981.56;5082397;27;66626;-40
2023/01/10 05:41:55;;;;;;;;;;;;;;;29.88;72.94;100957.84;5068705;27;70387;-40
2023/01/10 05:44:26;;;;;;;;;;;;;;;29.89;72.77;100956.81;5081801;27;66602;-41
2023/01/10 05:46:57;;;;;;;;;;;;;;;29.91;73.08;100949.31;5085843;27;70879;-40
2023/01/10 05:49:28;;;;;;;;;;;;;;;29.90;72.75;100947.66;5081142;27;66169;-40
2023/01/10 05:51:58;;;;;;;;;;;;;;;29.91;72.89;100943.91;5085986;27;69668;-41
2023/01/10 05:54:29;;;;;;;;;;;;;;;29.92;72.47;100932.03;5078121;27;66592;-40
2023/01/10 05:57:00;;;;;;;;;;;;;;;29.93;72.48;100933.72;5080008;27;69779;-40
2023/01/10 05:59:31;;;;;;;;;;;;;;;29.94;72.76;100924.56;5082830;27;67193;-40
2023/01/10 06:02:01;;;;;;;;;;;;;;;29.93;72.67;100912.91;5083723;27;70904;-39
2023/01/10 06:04:32;;;;;;;;;;;;;;;29.95;72.93;100909.97;5086684;27;66412;-40
2023/01/10 06:07:03;;;;;;;;;;;;;;;29.94;72.45;100894.81;5087630;27;70262;-41
2023/01/10 06:09:33;;;;;;;;;;;;;;;29.96;72.74;100890.84;5086622;27;66104;-39
2023/01/10 06:12:04;;;;;;;;;;;;;;;29.96;72.80;100879.19;5079905;27;68982;-40
2023/01/10 06:14:35;;;;;;;;;;;;;;;29.97;72.68;100878.97;5089197;27;66687;-39
2023/01/10 06:17:09;;;;;;;;;;;;;;;29.98;72.57;100872.53;5089808;27;69351;-39
2023/01/10 06:19:39;;;;;;;;;;;;;;;29.99;72.46;100862.53;5081677;27;67229;-40
2023/01/10 06:22:10;;;;;;;;;;;;;;;30.00;72.37;100853.38;5083042;27;69616;-39
2023/01/10 06:24:41;;;;;;;;;;;;;;;30.01;72.36;100855.03;5084421;27;67596;-40
2023/01/10 06:27:12;;;;;;;;;;;;;;;29.99;72.25;100841.72;5084624;27;70532;-38
2023/01/10 06:29:43;;;;;;;;;;;;;;;30.02;72.04;100840.47;5067627;27;65231;-41
2023/01/10 06:32:14;;;;;;;;;;;;;;;30.03;72.27;100840.25;5086649;27;70439;-41
2023/01/10 06:34:45;;;;;;;;;;;;;;;30.04;72.11;100838.38;5087498;27;65898;-42
2023/01/10 06:37:15;;;;;;;;;;;;;;;30.04;72.38;100835.69;5086407;27;71176;-39
2023/01/10 06:39:50;;;;;;;;;;;;;;;30.04;71.85;100832.97;5091210;27;66643;-39
2023/01/10 06:42:20;;;;;;;;;;;;;;;30.06;72.56;100839.84;5087691;27;70377;-41
2023/01/10 06:44:51;;;;;;;;;;;;;;;30.05;71.67;100834.63;5087170;27;66095;-39
2023/01/10 06:47:22;;;;;;;;;;;;;;;30.07;71.64;100837.94;5086924;27;69241;-42
2023/01/10 06:49:53;;;;;;;;;;;;;;;30.07;71.88;100840.66;5081751;27;66174;-39
2023/01/10 06:52:24;;;;;;;;;;;;;;;30.07;72.39;100835.25;5084178;27;70144;-40
2023/01/10 06:54:55;;;;;;;;;;;;;;;30.08;72.26;100834.19;5082856;27;65592;-39
2023/01/10 06:57:29;;;;;;;;;;;;;;;30.09;71.91;100835.00;5087532;27;69576;-40
2023/01/10 07:00:02;;;;;;;;;;;;;;;30.08;71.82;100836.91;5092308;27;66143;-41
2023/01/10 07:02:33;;;;;;;;;;;;;;;30.09;71.96;100822.34;5084361;27;69772;-40
2023/01/10 07:05:03;;;;;;;;;;;;;;;30.08;71.82;100828.78;5090919;27;66872;-39
2023/01/10 07:07:34;;;;;;;;;;;;;;;30.09;71.53;100822.34;5062135;27;70534;-39
2023/01/10 07:10:05;;;;;;;;;;;;;;;30.10;71.86;100823.16;5094357;27;66232;-40
2023/01/10 07:12:36;;;;;;;;;;;;;;;30.10;71.81;100821.28;5084264;27;70011;-39
2023/01/10 07:15:08;;;;;;;;;;;;;;;30.10;71.38;100815.88;5061114;27;65421;-40
2023/01/10 07:17:39;;;;;;;;;;;;;;;30.09;71.60;100811.53;5091887;27;70724;-40
2023/01/10 07:20:10;;;;;;;;;;;;;;;30.12;71.58;100807.56;5083098;27;67033;-40
2023/01/10 07:22:41;;;;;;;;;;;;;;;30.13;71.77;100803.78;5085788;27;70228;-41
2023/01/10 07:25:11;;;;;;;;;;;;;;;30.14;71.16;100805.44;5085091;27;66603;-40
2023/01/10 07:27:42;;;;;;;;;;;;;;;30.16;71.48;100798.78;5080073;27;69750;-39
2023/01/10 07:30:13;;;;;;;;;;;;;;;30.16;71.31;100787.94;5084058;27;65698;-39
2023/01/10 07:32:44;;;;;;;;;;;;;;;30.16;71.20;100792.53;5085677;27;70130;-39
2023/01/10 07:35:15;;;;;;;;;;;;;;;30.22;71.25;100783.56;5063100;27;66484;-41
2023/01/10 07:37:46;;;;;;;;;;;;;;;30.24;71.12;100784.19;5085334;27;70169;-39
2023/01/10 07:40:18;;;;;;;;;;;;;;;30.24;71.03;100785.00;5088957;27;66356;-40
2023/01/10 07:42:49;;;;;;;;;;;;;;;30.24;71.35;100785.00;5090643;27;69878;-41
2023/01/10 07:45:20;;;;;;;;;;;;;;;30.24;71.38;100773.38;5082446;27;65914;-39
2023/01/10 07:47:54;;;;;;;;;;;;;;;30.23;70.88;100769.84;5086835;27;70745;-39
2023/01/10 07:50:26;;;;;;;;;;;;;;;30.23;71.42;100772.53;5086403;27;66913;-39
2023/01/10 07:52:58;;;;;;;;;;;;;;;30.24;71.67;100779.59;5086949;27;69434;-40
2023/01/10 07:55:29;;;;;;;;;;;;;;;30.24;71.16;100774.19;5098699;27;65545;-39
2023/01/10 07:58:00;;;;;;;;;;;;;;;30.25;71.29;100775.00;5073883;27;70392;-39
2023/01/10 08:00:30;;;;;;;;;;;;;;;30.31;71.11;100778.72;5086575;27;66037;-39
2023/01/10 08:03:01;;;;;;;;;;;;;;;30.32;71.37;100775.00;5088177;27;69632;-39
2023/01/10 08:05:32;;;;;;;;;;;;;;;30.33;71.40;100777.47;5087259;27;66180;-40
2023/01/10 08:08:07;;;;;;;;;;;;;;;30.34;71.15;100775.56;5085398;27;69662;-40
2023/01/10 08:10:39;;;;;;;;;;;;;;;30.36;71.02;100770.78;5085822;27;66783;-40
2023/01/10 08:13:11;;;;;;;;;;;;;;;30.37;70.83;100772.44;5087941;27;70356;-40
2023/01/10 08:15:49;;;;;;;;;;;;;;;30.37;70.78;100767.00;5058945;27;65517;-39
2023/01/10 08:18:21;;;;;;;;;;;;;;;30.38;70.75;100768.69;5100020;27;69442;-40
2023/01/10 08:20:52;;;;;;;;;;;;;;;30.38;71.19;100763.28;5094382;27;65524;-40
2023/01/10 08:23:23;;;;;;;;;;;;;;;30.39;71.22;100764.94;5090742;27;69432;-40
2023/01/10 08:25:57;;;;;;;;;;;;;;;30.37;71.33;100762.47;5087671;27;66608;-41
2023/01/10 08:28:28;;;;;;;;;;;;;;;30.39;71.17;100759.50;5052512;27;70631;-40
2023/01/10 08:31:04;;;;;;;;;;;;;;;30.36;71.15;100759.97;5086735;27;66880;-40
2023/01/10 08:33:39;;;;;;;;;;;;;;;30.40;71.21;100767.44;5085846;27;70371;-40
2023/01/10 08:36:21;;;;;;;;;;;;;;;30.40;71.41;100767.44;5087280;27;65947;-40
2023/01/10 08:38:54;;;;;;;;;;;;;;;30.40;70.70;100769.31;5085624;27;69931;-42
2023/01/10 08:41:25;;;;;;;;;;;;;;;30.41;71.33;100779.91;5070295;27;65498;-40
2023/01/10 08:43:55;;;;;;;;;;;;;;;30.41;70.62;100770.94;5085150;27;70660;-40
2023/01/10 08:46:27;;;;;;;;;;;;;;;30.41;71.16;100776.38;5085910;27;65608;-41
2023/01/10 08:48:57;;;;;;;;;;;;;;;30.39;70.51;100770.34;5085321;27;72106;-40
2023/01/10 08:51:28;;;;;;;;;;;;;;;30.42;70.53;100775.31;5086964;27;66682;-40
2023/01/10 08:53:59;;;;;;;;;;;;;;;30.42;71.05;100778.00;5087557;27;70239;-41
2023/01/10 08:56:30;;;;;;;;;;;;;;;30.37;70.66;100777.84;5084593;27;65963;-42
2023/01/10 08:59:00;;;;;;;;;;;;;;;30.42;70.67;100778.00;5088608;27;69835;-41
2023/01/10 09:01:31;;;;;;;;;;;;;;;30.41;71.00;100779.91;5093926;27;66388;-40
2023/01/10 09:04:02;;;;;;;;;;;;;;;30.43;70.34;100780.50;5082151;27;69887;-42
2023/01/10 09:06:33;;;;;;;;;;;;;;;30.44;70.45;100784.03;5084014;27;65585;-40
2023/01/10 09:09:04;;;;;;;;;;;;;;;30.44;70.62;100778.63;5086122;27;70416;-41
2023/01/10 09:11:35;;;;;;;;;;;;;;;30.43;70.46;100782.41;5092179;27;66796;-40
2023/01/10 09:14:06;;;;;;;;;;;;;;;30.44;70.26;100789.47;5093955;27;71369;-40
2023/01/10 09:16:37;;;;;;;;;;;;;;;30.44;69.99;100790.28;5085530;27;66607;-40
2023/01/10 09:19:07;;;;;;;;;;;;;;;30.45;69.93;100791.97;5085532;27;70617;-40
2023/01/10 09:21:38;;;;;;;;;;;;;;;30.58;69.52;100795.59;5083184;27;65896;-42
2023/01/10 09:24:09;;;;;;;;;;;;;;;30.50;69.65;100799.41;5053038;27;69223;-42
2023/01/10 09:26:40;;;;;;;;;;;;;;;30.41;70.05;100801.56;5084161;27;66482;-40
2023/01/10 09:29:11;;;;;;;;;;;;;;;30.34;70.92;100808.06;5090069;27;69723;-39
2023/01/10 09:31:42;;;;;;;;;;;;;;;30.32;70.91;100799.34;5083287;27;66644;-39
2023/01/10 09:34:13;;;;;;;;;;;;;;;30.26;71.00;100807.28;5082759;27;69842;-39
2023/01/10 09:36:43;;;;;;;;;;;;;;;30.26;71.18;100815.41;5050226;27;65665;-40
2023/01/10 09:39:14;;;;;;;;;;;;;;;30.24;70.62;100812.06;5091000;27;70059;-40
2023/01/10 09:42:00;;;;;;;;;;;;;;;30.21;71.01;100817.06;5091243;27;65559;-43
2023/01/10 09:44:42;;;;;;;;;;;;;;;30.20;70.85;100821.66;5080899;27;70318;-40
2023/01/10 09:47:32;;;;;;;;;;;;;;;30.20;70.57;100821.66;5081045;27;66042;-39
2023/01/10 09:50:21;;;;;;;;;;;;;;;30.19;70.22;100819.16;5090052;27;70363;-42
2023/01/10 09:52:54;;;;;;;;;;;;;;;30.19;70.73;100809.16;5069218;27;66599;-44
2023/01/10 09:55:30;;;;;;;;;;;;;;;30.14;70.74;100810.84;5085236;27;70944;-42
2023/01/10 09:58:04;;;;;;;;;;;;;;;30.16;70.62;100820.41;5081401;27;66389;-40
2023/01/10 10:00:53;;;;;;;;;;;;;;;30.15;70.67;100829.59;5083077;27;70406;-40
2023/01/10 10:03:37;;;;;;;;;;;;;;;30.18;70.44;100828.31;5068872;27;65554;-40
2023/01/10 10:06:13;;;;;;;;;;;;;;;30.14;69.46;100827.09;5067131;27;70581;-43
2023/01/10 10:08:46;;;;;;;;;;;;;;;30.13;69.32;100833.56;5087873;27;65387;-41
2023/01/10 10:11:26;;;;;;;;;;;;;;;30.11;69.05;100844.56;5057829;27;70149;-40
2023/01/10 10:14:10;;;;;;;;;;;;;;;30.08;68.62;100838.78;5086139;27;66909;-40
2023/01/10 10:16:52;;;;;;;;;;;;;;;30.06;68.24;100847.94;5080723;27;69999;-43
2023/01/10 10:19:23;;;;;;;;;;;;;;;30.04;68.68;100849.22;5085173;27;66358;-40
2023/01/10 10:22:12;;;;;;;;;;;;;;;30.06;68.27;100855.22;5080389;27;69819;-40
2023/01/10 10:24:48;;;;;;;;;;;;;;;30.05;68.88;100858.97;5086129;27;66753;-39
2023/01/10 10:27:39;;;;;;;;;;;;;;;30.06;68.17;100857.91;5082410;27;70024;-40
2023/01/10 10:30:28;;;;;;;;;;;;;;;30.06;68.02;100871.44;5081568;27;65596;-40
2023/01/10 10:33:03;;;;;;;;;;;;;;;29.97;68.76;100880.84;5087143;27;70837;-40
2023/01/10 10:35:49;;;;;;;;;;;;;;;30.00;68.36;100870.41;5084614;27;65815;-42
2023/01/10 10:38:24;;;;;;;;;;;;;;;30.04;68.48;100874.38;5088371;27;70076;-38
2023/01/10 10:40:57;;;;;;;;;;;;;;;30.06;68.03;100872.28;5089166;27;65984;-44
2023/01/10 10:43:32;;;;;;;;;;;;;;;30.10;67.96;100880.78;5087733;27;70656;-41
2023/01/10 10:46:07;;;;;;;;;;;;;;;30.12;68.12;100878.72;5088579;27;66820;-41
2023/01/10 10:48:41;;;;;;;;;;;;;;;30.13;68.36;100885.78;5050230;27;70286;-39
2023/01/10 10:51:23;;;;;;;;;;;;;;;30.14;67.94;100882.00;5086395;27;65983;-40
2023/01/10 10:53:56;;;;;;;;;;;;;;;30.17;67.69;100887.03;5089427;27;70294;-38
2023/01/10 10:56:27;;;;;;;;;;;;;;;30.18;67.56;100883.25;5087416;27;66370;-39
2023/01/10 10:58:58;;;;;;;;;;;;;;;30.19;67.69;100897.59;5086289;27;70134;-40
2023/01/10 11:01:29;;;;;;;;;;;;;;;30.20;67.60;100892.00;5088311;27;66166;-40
2023/01/10 11:04:02;;;;;;;;;;;;;;;30.16;67.99;100896.16;5086290;27;70496;-39
2023/01/10 11:06:35;;;;;;;;;;;;;;;30.20;67.84;100893.84;5089710;27;66750;-40
2023/01/10 11:09:07;;;;;;;;;;;;;;;30.15;66.95;100894.50;5084748;27;70310;-40
2023/01/10 11:11:43;;;;;;;;;;;;;;;30.17;66.94;100900.53;5085035;27;66130;-39
2023/01/10 11:14:14;;;;;;;;;;;;;;;30.17;67.70;100905.97;5053467;27;69052;-40
2023/01/10 11:16:46;;;;;;;;;;;;;;;30.16;67.25;100917.81;5086759;27;67011;-40
2023/01/10 11:19:18;;;;;;;;;;;;;;;30.15;67.46;100918.88;5084308;27;69868;-39
2023/01/10 11:21:54;;;;;;;;;;;;;;;30.15;67.31;100920.75;5084711;27;66725;-39
2023/01/10 11:24:31;;;;;;;;;;;;;;;30.13;67.29;100925.53;5082621;27;70451;-40
2023/01/10 11:27:04;;;;;;;;;;;;;;;30.13;67.29;100934.47;5083465;27;66354;-39
2023/01/10 11:29:38;;;;;;;;;;;;;;;30.12;67.22;100932.81;5070682;27;70465;-42
2023/01/10 11:32:13;;;;;;;;;;;;;;;30.13;67.06;100939.88;5084275;27;66000;-39
2023/01/10 11:34:59;;;;;;;;;;;;;;;30.12;67.09;100951.75;5078262;27;69778;-39
2023/01/10 11:37:34;;;;;;;;;;;;;;;30.12;66.98;100949.06;5079557;27;65619;-41
2023/01/10 11:40:18;;;;;;;;;;;;;;;30.08;65.32;100955.91;5080553;27;70068;-40
2023/01/10 11:42:50;;;;;;;;;;;;;;;30.06;66.11;100955.28;5077986;27;66938;-42
2023/01/10 11:45:23;;;;;;;;;;;;;;;30.06;66.23;100956.16;5079840;27;69965;-40
2023/01/10 11:47:58;;;;;;;;;;;;;;;30.05;66.17;100953.66;5083310;27;66195;-41
2023/01/10 11:50:31;;;;;;;;;;;;;;;30.07;66.39;100962.38;5046582;27;70557;-40
2023/01/10 11:53:04;;;;;;;;;;;;;;;29.90;66.51;100939.56;5080468;27;66917;-43
2023/01/10 11:55:36;;;;;;;;;;;;;;;30.10;66.21;100978.19;5079545;27;70275;-43
2023/01/10 11:58:10;;;;;;;;;;;;;;;30.11;66.23;100974.44;5081649;27;66480;-40
2023/01/10 12:00:45;;;;;;;;;;;;;;;30.11;66.62;100974.44;5077595;27;69968;-41
2023/01/10 12:03:22;;;;;;;;;;;;;;;30.12;67.33;100975.28;5080222;27;66646;-43
2023/01/10 12:05:57;;;;;;;;;;;;;;;30.13;66.77;100969.63;5085181;27;70401;-39
2023/01/10 12:08:33;;;;;;;;;;;;;;;30.15;67.02;100978.38;5084461;27;66382;-41
2023/01/10 12:11:05;;;;;;;;;;;;;;;30.17;67.15;100975.44;5065665;28;70514;-42
2023/01/10 12:13:49;;;;;;;;;;;;;;;30.16;66.94;100982.75;5085408;27;66116;-39
2023/01/10 12:16:24;;;;;;;;;;;;;;;30.17;66.99;100984.41;5081686;27;68681;-43
2023/01/10 12:19:03;;;;;;;;;;;;;;;30.18;67.11;100986.06;5082734;27;64718;-42
2023/01/10 12:21:34;;;;;;;;;;;;;;;30.20;67.17;100993.97;5077216;27;70431;-40
2023/01/10 12:24:11;;;;;;;;;;;;;;;30.19;67.28;100995.84;5079285;27;65551;-40
2023/01/10 12:26:43;;;;;;;;;;;;;;;30.18;66.98;100996.91;5079637;27;70410;-41
2023/01/10 12:29:33;;;;;;;;;;;;;;;30.17;67.24;100994.38;5078177;27;66388;-40
2023/01/10 12:32:05;;;;;;;;;;;;;;;30.27;67.40;101000.22;5077459;27;70347;-42
2023/01/10 12:34:42;;;;;;;;;;;;;;;30.33;67.89;101014.78;5077188;27;65729;-42
2023/01/10 12:37:23;;;;;;;;;;;;;;;30.22;68.81;101008.97;5079155;27;69194;-38
2023/01/10 12:40:03;;;;;;;;;;;;;;;30.20;68.70;101015.59;5077899;27;66066;-40
2023/01/10 12:45:52;;;;;;;;;;;;;;;30.08;69.77;101020.03;5077069;27;66581;-41
2023/01/10 12:48:33;;;;;;;;;;;;;;;30.01;70.32;101023.56;5048401;27;69569;-43
2023/01/10 12:51:11;;;;;;;;;;;;;;;29.99;70.40;101024.81;5065070;27;66193;-43
2023/01/10 12:54:03;;;;;;;;;;;;;;;29.93;70.51;101020.25;5076526;27;70282;-41
2023/01/10 12:56:34;;;;;;;;;;;;;;;29.90;70.68;101032.34;5075696;27;66370;-41
2023/01/10 12:59:19;;;;;;;;;;;;;;;29.90;70.64;101043.16;5053403;27;68920;-39
2023/01/10 13:02:07;;;;;;;;;;;;;;;29.91;71.10;101046.69;5062728;28;66220;-39
2023/01/10 13:04:40;;;;;;;;;;;;;;;29.92;71.31;101051.03;5081618;27;69722;-40
2023/01/10 13:07:12;;;;;;;;;;;;;;;29.91;70.71;101060.19;5079089;27;65748;-38
2023/01/10 13:09:43;;;;;;;;;;;;;;;29.90;71.06;101059.38;5082308;27;70561;-38
2023/01/10 13:12:20;;;;;;;;;;;;;;;29.90;71.52;101064.78;5076870;27;65956;-38
2023/01/10 13:15:09;;;;;;;;;;;;;;;29.91;71.20;101069.16;5085611;27;70074;-39